Terminal Aerodrome Forecast
Issued by NWS

Current Version | Previous Version | Text Only | Print | Product List | Glossary Off
Versions: 1 2 3 4 5 6 7 8 9 10 11 12 13 14 15 16 17 18 19 20 21 22 23 24

000
FTUS41 KRLX 211700 RRA
TAFCKB
TAF
KCKB 211742Z 2118/2218 28007KT P6SM -SHRA OVC008
      TEMPO 2118/2120 2SM SHRA BR
     FM212000 28008KT P6SM -SHRA OVC015
      TEMPO 2120/2123 2SM SHRA BR
     FM212300 29008KT P6SM OVC020
     FM220400 30009KT P6SM OVC018
     FM221600 34011G17KT P6SM OVC020=

USA.gov is the U.S. government's official web portal to all federal, state and local government web resources and services.